KWWR/WWR METAR and TAF weather

Enter ICAO airport designator
Station Type Date Time Source
KWWR METAR 2019/08/18 09:15 UTC NOAA

KWWR 180915Z AUTO 18019G25KT 10SM CLR 26/17 A2979 RMK AO2


Station Type Date Time Source
KWWR Decoded METAR 2019/08/18 09:15 UTC NOAA

Station name not available
Aug 18, 2019 - 05:15 AM EDT / 2019.08.18 0915 UTC
Wind: from the S (180 degrees) at 22 MPH (19 KT) gusting to 29 MPH (25 KT):0
Visibility: 10 mile(s):0
Sky conditions: clear
Temperature: 78 F (26 C)
Dew Point: 62 F (17 C)
Relative Humidity: 57%
Pressure (altimeter): 29.79 in. Hg (1008 hPa)
ob: KWWR 180915Z AUTO 18019G25KT 10SM CLR 26/17 A2979 RMK AO2
cycle: 9

Station Type Date Time Source
KWWR TAF 2019/08/18 06:24 UTC NOAA

TAF KWWR 180523Z 1806/1906 15014G22KT P6SM SKC
FM181500 23012G18KT P6SM SKC
FM182300 36009KT P6SM SKC

Example: see airport list